Latest Weather Observations for Warra

IDT60801

Issued at 1:31 pm EST Friday 6 May 2016 (issued every 30 minutes, with the page automatically refreshed every 10 minutes)

About weather observations | Map of weather stations | Latest weather observations for TAS | Other Formats
Station Details ID: 097024 Name: WARRA Lat: -43.06 Lon: 146.70 Height: 495.0 m
Data from the previous 72 hours. | See also: Recent months at Warra
Date/Time
EST
Temp
°C
App
Temp
°C
Dew
Point
Rel
Hum
%
Delta-T
°C
Wind Press
QNH
hPa
Press
MSL
hPa
Rain
since 9 am
mm
Dir
 
Spd
km/h
Gust
km/h
Spd
kts
Gust
kts
06/01:30pm 12.6 8.3 5.1 60 3.6 WNW 17 35 9 19 - - 0.0
06/01:12pm 12.3 5.6 3.8 56 3.9 WNW 28 61 15 33 - - 0.0
06/01:00pm 12.8 7.8 4.5 57 3.9 WNW 20 35 11 19 - - 0.0
06/12:30pm 12.4 6.5 3.9 56 3.9 WNW 24 43 13 23 - - 0.0
06/12:00pm 12.0 5.1 2.7 53 4.2 WNW 28 54 15 29 - - 0.0
06/11:46am 12.1 5.2 2.8 53 4.2 NW 28 46 15 25 - - 0.0
06/11:30am 12.3 6.9 4.3 58 3.7 WNW 22 39 12 21 - - 0.0
06/11:00am 11.5 4.8 3.8 59 3.5 NW 28 59 15 32 - - 0.0
06/10:31am 11.2 4.5 3.7 60 3.4 NW 28 50 15 27 - - 0.0
06/10:30am 11.2 4.9 3.7 60 3.4 NW 26 48 14 26 - - 0.0
06/10:19am 11.0 4.3 3.5 60 3.4 WNW 28 54 15 29 - - 0.0
06/10:00am 10.7 4.7 3.5 61 3.3 NW 24 46 13 25 - - 0.0
06/09:36am 10.4 3.7 3.4 62 3.1 NW 28 52 15 28 - - 0.0
06/09:30am 10.5 4.7 4.2 65 2.9 NW 24 50 13 27 - - 0.0
06/09:00am 9.2 4.0 5.4 77 1.8 NW 22 35 12 19 - - 15.6
06/08:30am 9.6 5.0 5.4 75 2.0 NW 19 46 10 25 - - 15.6
06/08:00am 8.6 2.9 5.0 78 1.7 WNW 24 44 13 24 - - 15.6
06/07:30am 7.9 3.2 5.9 87 0.9 WNW 20 28 11 15 - - 15.6
06/07:00am 7.5 3.4 6.4 93 0.5 NW 17 32 9 17 - - 15.6
06/06:30am 7.0 2.9 6.3 95 0.3 NW 17 30 9 16 - - 15.6
06/06:00am 7.0 2.8 5.9 93 0.5 NW 17 28 9 15 - - 15.6
06/05:30am 7.5 0.8 5.6 88 0.9 NW 30 48 16 26 - - 15.2
06/05:00am 7.4 1.3 6.5 94 0.4 WNW 28 52 15 28 - - 14.8
06/04:44am 7.7 1.8 7.4 98 0.1 WNW 28 50 15 27 - - 14.2
06/04:30am 7.6 2.4 7.2 97 0.2 WNW 24 43 13 23 - - 14.2
06/04:00am 7.9 3.4 7.1 95 0.4 WNW 20 46 11 25 - - 14.0
06/03:30am 8.6 6.2 8.6 100 0.0 NW 11 22 6 12 - - 14.0
06/03:00am 8.7 5.6 8.7 100 0.0 WNW 15 28 8 15 - - 12.8
06/02:30am 8.8 6.1 8.8 100 0.0 W 13 20 7 11 - - 12.2
06/02:00am 9.3 7.1 9.3 100 0.0 W 11 22 6 12 - - 11.2
06/01:30am 9.7 4.7 9.6 99 0.1 WNW 26 46 14 25 - - 10.4
06/01:15am 10.0 4.7 9.9 99 0.1 WNW 28 61 15 33 - - 10.2
06/01:00am 10.7 6.8 10.7 100 0.0 WNW 22 44 12 24 - - 10.2
06/12:30am 11.0 8.0 10.8 99 0.1 NW 17 35 9 19 - - 8.0
06/12:00am 10.8 5.7 10.5 98 0.2 NW 28 52 15 28 - - 6.4
 
Date/Time
EST
Temp
°C
App
Temp
°C
Dew
Point
Rel
Hum
%
Delta-T
°C
Wind Press
QNH
hPa
Press
MSL
hPa
Rain
since 9 am
mm
Dir
 
Spd
km/h
Gust
km/h
Spd
kts
Gust
kts
05/11:30pm 11.4 6.0 10.8 96 0.3 NW 30 52 16 28 - - 5.0
05/11:19pm 11.4 6.4 11.1 98 0.2 NW 28 54 15 29 - - 4.8
05/11:00pm 11.5 8.0 11.0 97 0.3 NW 20 41 11 22 - - 3.4
05/10:30pm 11.9 7.2 10.8 93 0.6 NW 26 50 14 27 - - 2.8
05/10:00pm 11.7 7.4 10.8 94 0.5 NW 24 43 13 23 - - 2.4
05/09:30pm 12.1 8.1 10.5 90 0.8 NW 22 39 12 21 - - 1.6
05/09:00pm 11.6 6.5 10.5 93 0.6 NW 28 52 15 28 - - 1.6
05/08:43pm 11.5 6.2 9.9 90 0.8 NW 28 46 15 25 - - 1.6
05/08:30pm 12.2 7.8 9.0 81 1.6 NW 22 41 12 22 - - 1.4
05/08:00pm 11.9 7.4 8.7 81 1.6 NW 22 37 12 20 - - 1.4
05/07:32pm 11.8 6.4 9.4 85 1.2 NW 28 46 15 25 - - 1.4
05/07:30pm 11.8 7.2 9.5 86 1.2 NW 24 46 13 25 - - 1.4
05/07:07pm 11.6 6.3 9.9 89 0.9 NW 28 56 15 30 - - 1.4
05/07:00pm 11.1 7.4 10.0 93 0.6 NW 20 37 11 20 - - 1.4
05/06:30pm 11.6 7.0 9.7 88 1.0 NW 24 46 13 25 - - 1.2
05/06:00pm 11.7 7.8 9.6 87 1.1 NW 20 46 11 25 - - 1.2
05/05:30pm 11.6 8.6 10.5 93 0.6 NNW 17 37 9 20 - - 1.2
05/05:00pm 11.7 8.5 11.2 97 0.3 NNW 19 43 10 23 - - 1.0
05/04:30pm 11.8 8.7 11.5 98 0.2 NW 19 44 10 24 - - 1.0
05/04:00pm 12.0 7.9 11.4 96 0.3 NW 24 46 13 25 - - 0.8
05/03:30pm 12.3 8.5 11.0 92 0.7 NW 22 35 12 19 - - 0.8
05/03:00pm 13.3 10.3 10.8 85 1.3 NW 17 30 9 16 - - 0.2
05/02:30pm 13.2 10.0 11.1 87 1.1 NW 19 41 10 22 - - 0.2
05/02:00pm 13.3 10.8 11.2 87 1.1 NW 15 28 8 15 - - 0.2
05/01:30pm 13.2 10.7 10.9 86 1.2 NNW 15 32 8 17 - - 0.0
05/01:00pm 13.1 10.6 11.0 87 1.1 NW 15 26 8 14 - - 0.0
05/12:30pm 14.1 11.5 9.5 74 2.4 NW 13 28 7 15 - - 0.0
05/12:00pm 14.9 10.7 9.7 71 2.8 NW 22 52 12 28 - - 0.0
05/11:30am 13.6 10.5 10.2 80 1.8 NW 17 35 9 19 - - 0.0
05/11:03am 13.4 8.1 10.0 80 1.8 NW 28 48 15 26 - - 0.0
05/11:00am 13.6 8.6 9.5 76 2.2 NW 26 52 14 28 - - 0.0
05/10:56am 13.8 8.4 9.5 75 2.3 NW 28 52 15 28 - - 0.0
05/10:30am 13.1 9.5 10.5 84 1.4 NW 20 43 11 23 - - 0.0
05/10:00am 12.6 8.2 10.3 86 1.2 NW 24 43 13 23 - - 0.0
05/09:30am 11.7 8.7 10.8 94 0.5 NW 17 32 9 17 - - 0.0
05/09:00am 11.7 7.3 10.4 92 0.7 NW 24 48 13 26 - - 3.4
05/08:30am 11.1 7.9 11.1 100 0.0 NW 19 33 10 18 - - 3.2
05/08:00am 10.8 9.0 10.8 100 0.0 NW 11 24 6 13 - - 2.8
05/07:30am 10.8 8.2 10.8 100 0.0 NW 15 33 8 18 - - 2.2
05/07:00am 10.8 8.2 10.6 99 0.1 NW 15 28 8 15 - - 1.6
05/06:30am 11.4 7.7 10.0 91 0.7 WNW 20 37 11 20 - - 1.4
05/06:00am 10.9 7.3 10.7 99 0.1 NW 20 35 11 19 - - 1.4
05/05:30am 11.2 7.5 10.1 93 0.6 NW 20 35 11 19 - - 1.2
05/05:00am 10.9 6.4 10.1 95 0.4 WNW 24 48 13 26 - - 1.0
05/04:48am 11.0 5.7 9.9 93 0.6 NW 28 46 15 25 - - 1.0
05/04:30am 10.8 6.3 10.0 95 0.4 NW 24 35 13 19 - - 1.0
05/04:00am 10.9 6.2 9.2 89 0.9 NW 24 39 13 21 - - 0.6
05/03:49am 11.7 6.0 8.4 80 1.7 WNW 28 46 15 25 - - 0.6
05/03:30am 11.6 6.2 8.1 79 1.8 WNW 26 50 14 27 - - 0.6
05/03:00am 10.8 4.9 8.9 88 1.0 NW 30 48 16 26 - - 0.6
05/02:30am 11.0 4.6 8.6 85 1.2 NW 32 56 17 30 - - 0.6
05/02:00am 10.7 4.7 8.6 87 1.1 NW 30 54 16 29 - - 0.4
05/01:42am 10.5 4.9 8.6 88 1.0 NW 28 46 15 25 - - 0.4
05/01:30am 10.0 5.2 8.8 92 0.6 NW 24 41 13 22 - - 0.4
05/01:08am 10.2 4.4 8.1 87 1.0 NW 28 46 15 25 - - 0.4
05/01:00am 10.0 5.0 8.1 88 0.9 NW 24 46 13 25 - - 0.2
05/12:30am 10.9 4.5 7.0 77 1.9 NW 30 50 16 27 - - 0.2
05/12:19am 10.7 4.3 6.8 77 1.9 NW 30 50 16 27 - - 0.2
05/12:00am 10.6 4.9 6.6 76 1.9 NW 26 39 14 21 - - 0.2
 
Date/Time
EST
Temp
°C
App
Temp
°C
Dew
Point
Rel
Hum
%
Delta-T
°C
Wind Press
QNH
hPa
Press
MSL
hPa
Rain
since 9 am
mm
Dir
 
Spd
km/h
Gust
km/h
Spd
kts
Gust
kts
04/11:31pm 10.2 4.1 6.7 79 1.7 WNW 28 48 15 26 - - 0.2
04/11:30pm 10.1 4.4 6.6 79 1.7 WNW 26 48 14 26 - - 0.2
04/11:00pm 10.0 3.8 6.2 77 1.8 NW 28 43 15 23 - - 0.2
04/10:30pm 9.6 2.7 6.5 81 1.5 NW 32 50 17 27 - - 0.2
04/10:00pm 8.9 2.2 7.2 89 0.8 NW 32 56 17 30 - - 0.2
04/09:30pm 8.9 2.1 6.7 86 1.1 NW 32 56 17 30 - - 0.2
04/09:02pm 8.7 2.5 6.0 83 1.3 NW 28 46 15 25 - - 0.2
04/09:00pm 8.7 2.1 6.0 83 1.3 NW 30 46 16 25 - - 0.2
04/08:30pm 8.7 1.4 5.4 80 1.5 NW 33 54 18 29 - - 0.2
04/08:09pm 8.4 2.1 5.5 82 1.3 NW 28 46 15 25 - - 0.2
04/08:00pm 8.5 1.8 5.4 81 1.4 NW 30 46 16 25 - - 0.2
04/07:30pm 8.0 1.6 5.1 82 1.3 NW 28 52 15 28 - - 0.2
04/07:24pm 7.9 1.6 5.5 85 1.1 NW 28 52 15 28 - - 0.2
04/07:00pm 7.5 1.8 5.0 84 1.1 NW 24 39 13 21 - - 0.2
04/06:41pm 7.4 0.9 4.9 84 1.1 NW 28 48 15 26 - - 0.2
04/06:30pm 7.2 1.7 5.7 90 0.7 NW 24 39 13 21 - - 0.2
04/06:00pm 7.4 2.1 5.2 86 1.0 NW 22 37 12 20 - - 0.2
04/05:30pm 7.7 0.7 4.3 79 1.5 NW 30 46 16 25 - - 0.2
04/05:00pm 8.1 0.6 3.4 72 2.1 NW 32 54 17 29 - - 0.2
04/04:43pm 8.0 1.3 3.5 73 2.0 NW 28 48 15 26 - - 0.2
04/04:30pm 7.9 2.9 3.6 74 1.9 NW 19 41 10 22 - - 0.2
04/04:00pm 7.9 2.9 3.6 74 1.9 NNW 19 43 10 23 - - 0.2
04/03:30pm 8.4 3.1 2.8 68 2.4 NW 20 37 11 20 - - 0.2
04/03:00pm 8.3 3.3 3.6 72 2.1 NW 19 32 10 17 - - 0.2
04/02:30pm 8.5 3.8 2.9 68 2.4 NW 17 33 9 18 - - 0.2
04/02:00pm 8.4 2.8 3.5 71 2.2 NW 22 41 12 22 - - 0.2
04/01:30pm 8.1 5.6 4.9 80 1.5 NNE 7 9 4 5 - - 0.2
04/01:00pm 8.7 5.9 5.1 78 1.7 ENE 9 13 5 7 - - 0.2
04/12:30pm 9.0 4.3 3.2 67 2.6 NW 17 39 9 21 - - 0.2
04/12:00pm 7.3 1.6 2.8 73 1.9 WNW 22 39 12 21 - - 0.2
04/11:50am 7.6 0.8 3.1 73 2.0 WNW 28 56 15 30 - - 0.2
04/11:30am 6.7 1.6 3.9 82 1.2 WNW 20 41 11 22 - - 0.2
04/11:00am 7.5 0.0 3.4 75 1.8 WNW 32 57 17 31 - - 0.2
04/10:30am 7.1 0.3 3.2 76 1.7 WNW 28 52 15 28 - - 0.2
04/10:18am 6.8 0.1 3.8 81 1.3 WNW 28 50 15 27 - - 0.2
04/10:00am 6.4 0.8 3.7 83 1.2 WNW 22 35 12 19 - - 0.0
04/09:30am 5.7 -1.8 3.7 87 0.9 WNW 32 52 17 28 - - 0.0
04/09:10am 5.0 -1.5 4.6 97 0.2 WNW 28 48 15 26 - - 0.0
04/09:00am 4.4 -1.4 4.3 99 0.0 WNW 24 41 13 22 - - 35.4
04/08:46am 4.5 -2.1 4.4 99 0.0 WNW 28 56 15 30 - - 35.0
04/08:30am 3.1 -2.2 3.0 99 0.0 WNW 20 32 11 17 - - 34.8
04/08:00am 4.1 -0.8 4.0 99 0.0 WNW 19 32 10 17 - - 33.0
04/07:30am 3.4 -2.2 3.3 99 0.0 NW 22 33 12 18 - - 32.8
04/07:00am 3.1 -2.1 2.7 97 0.2 WNW 19 39 10 21 - - 31.4
04/06:30am 4.3 -2.6 2.3 87 0.8 NW 28 54 15 29 - - 29.6
04/06:00am 3.8 -3.5 2.6 92 0.5 WNW 30 50 16 27 - - 29.4
04/05:35am 3.5 -3.4 2.8 95 0.3 NW 28 50 15 27 - - 29.2
04/05:30am 3.5 -3.0 2.8 95 0.3 NW 26 44 14 24 - - 29.0
04/05:00am 3.0 -2.7 2.6 97 0.2 NW 22 37 12 20 - - 29.0
04/04:47am 3.5 -3.4 2.5 93 0.4 WNW 28 48 15 26 - - 28.2
04/04:30am 3.3 -2.8 2.7 96 0.2 WNW 24 44 13 24 - - 28.0
04/04:19am 3.4 -2.3 2.8 96 0.2 NW 22 54 12 29 - - 27.6
04/04:00am 3.3 -2.4 2.6 95 0.3 WNW 22 43 12 23 - - 27.4
04/03:43am 3.2 -2.6 2.3 94 0.4 NW 22 44 12 24 - - 27.4
04/03:30am 2.2 -2.7 2.1 99 0.0 NNW 17 24 9 13 - - 27.4
04/03:00am 3.5 -3.9 2.0 90 0.6 NW 30 56 16 30 - - 26.4
04/02:50am 3.6 -3.3 2.3 91 0.5 NW 28 54 15 29 - - 26.0
04/02:30am 2.8 -2.1 1.9 94 0.4 NW 17 32 9 17 - - 26.0
04/02:00am 4.0 -2.3 1.5 84 1.0 WNW 24 41 13 22 - - 24.4
04/01:33am 3.7 -3.3 1.9 88 0.7 WNW 28 46 15 25 - - 24.4
04/01:30am 3.7 -3.7 1.9 88 0.7 WNW 30 44 16 24 - - 24.4
04/01:05am 3.6 -3.2 3.0 96 0.3 WNW 28 54 15 29 - - 24.4
04/01:00am 3.2 -2.1 3.1 99 0.0 NW 20 39 11 21 - - 24.4
04/12:30am 2.3 -3.1 2.3 100 0.0 NW 20 39 11 21 - - 24.0
04/12:00am 2.5 -2.3 2.5 100 0.0 NW 17 32 9 17 - - 23.8
 
Date/Time
EST
Temp
°C
App
Temp
°C
Dew
Point
Rel
Hum
%
Delta-T
°C
Wind Press
QNH
hPa
Press
MSL
hPa
Rain
since 9 am
mm
Dir
 
Spd
km/h
Gust
km/h
Spd
kts
Gust
kts
03/11:30pm 2.1 -2.8 2.1 100 0.0 NNW 17 24 9 13 - - 23.4
03/11:00pm 2.4 -2.8 2.3 99 0.0 NNW 19 32 10 17 - - 22.8
03/10:30pm 2.7 -2.7 2.3 97 0.2 W 20 30 11 16 - - 21.6
03/10:15pm 3.0 -4.0 2.1 94 0.4 W 28 48 15 26 - - 21.2
03/10:00pm 3.1 -3.4 2.5 96 0.2 WNW 26 43 14 23 - - 21.0
03/09:30pm 3.1 -1.2 3.0 99 0.0 NW 15 28 8 15 - - 19.8
03/09:00pm 4.2 -0.9 3.3 94 0.4 WNW 19 37 10 20 - - 18.2
03/08:30pm 4.0 -0.7 3.3 95 0.3 WNW 17 37 9 20 - - 17.6
03/08:00pm 3.5 -1.2 3.1 97 0.2 NW 17 28 9 15 - - 17.4
03/07:30pm 4.4 -1.2 3.4 93 0.4 WNW 22 44 12 24 - - 15.8
03/07:00pm 3.9 -2.9 3.3 96 0.3 WNW 28 54 15 29 - - 15.6
03/06:59pm 4.0 -2.8 3.3 95 0.3 WNW 28 54 15 29 - - 15.4
03/06:30pm 3.6 -1.6 3.3 98 0.1 NW 20 35 11 19 - - 15.2
03/06:00pm 3.9 -2.2 3.0 94 0.4 WNW 24 50 13 27 - - 14.2
03/05:51pm 3.9 -2.8 3.5 97 0.2 WNW 28 54 15 29 - - 14.0
03/05:30pm 4.4 -1.5 4.0 97 0.2 WNW 24 46 13 25 - - 12.4
03/05:00pm 4.3 -1.5 4.2 99 0.0 WNW 24 48 13 26 - - 11.8
03/04:30pm 5.0 0.2 4.9 99 0.0 NW 19 32 10 17 - - 9.0
03/04:00pm 4.9 0.5 4.8 99 0.0 NW 17 39 9 21 - - 8.4
03/03:30pm 4.5 0.0 4.4 99 0.0 NW 17 35 9 19 - - 8.4
03/03:01pm 5.0 -2.0 4.0 93 0.4 NW 30 57 16 31 - - 7.2
03/03:00pm 5.0 -1.7 3.8 92 0.5 NW 28 57 15 31 - - 7.0
03/02:30pm 6.6 3.3 6.6 100 0.0 NNW 13 26 7 14 - - 6.2
03/02:00pm 6.6 2.6 6.6 100 0.0 W 17 33 9 18 - - 6.2

Other Formats:

Comma delimited format used in spreadsheet applications
http://www.bom.gov.au/fwo/IDT60801/IDT60801.95962.axf

JavaScript Object Notation format (JSON) in row-major order
http://www.bom.gov.au/fwo/IDT60801/IDT60801.95962.json